Saint-Jean-Baptiste, Canada
Current Conditions -  °F | °C
As of 12:00 AM on Monday 22 Dec 2014 (Local Time) from CYQB Reporting Station
Light Snow Light Snow  
Wind Chill:   Ceiling: 1200
Heat Index: 16°   Visibility: 15mi
Dew Point: 10°   Wind: 5mph
Humidity: 79%   Direction: 340°NNW
Pressure: 30.42"   Gusts: NA
Location:  47.12°N, 70.18°W
Report Text: CYQB 220500Z 34004KT 15SM -SN OVC012 M09/M12 A3042 RMK SC8 SLP307
Loading
Personal Weather Stations






























Interactive Weather Map New forecast layout! Learn more

10-Day Weather Forecast

Advertisements
Track Severe Weather on mobile